Latest Coastal Weather Observations for Cape Bruny AWS

IDT60701

Issued at 3:03 pm EST Thursday 30 June 2016 (issued every 10 minutes, with the page automatically refreshed every 10 minutes)

About coastal observations | Map of coastal stations | Coastal observations for TAS | Marine services | Other Formats
Station Details ID: 094198 Name: CAPE BRUNY (CAPE BRUNY) Lat: -43.49 Lon: 147.14 Height: 59.7 m
Data from the previous 72 hours. | See also: Recent months at Cape Bruny AWS
Date/Time
EST
Temp
°C
Wind Pressure Rain since
9am
mm
Weather Cloud Vis
km
Sea
Height
m
Swell
Dir  Spd
kts
Gust
kts
hPa Trend Height
m
Period
s
Dir
30/03:00pm 11.5 NNE 8 11 999.3 - 0.0 - - - - - - -
30/02:30pm 11.3 NNE 9 16 999.4 - 0.0 - - - - - - -
30/02:00pm 11.1 NNE 10 17 999.5 - 0.0 - - - - - - -
30/01:30pm 11.1 NNE 11 17 999.7 - 0.0 - - - - - - -
30/01:00pm 10.9 NE 11 19 1000.2 - 0.0 - - - - - - -
30/12:30pm 11.1 NE 11 16 1000.6 - 0.0 - - - - - - -
30/12:00pm 10.7 NE 11 15 1001.3 - 0.0 - - - - - - -
30/11:30am 10.5 NE 13 19 1001.9 - 0.0 - - - - - - -
30/11:00am 10.5 NE 11 16 1002.6 - 0.0 - - - - - - -
30/10:30am 10.5 NNE 11 17 1003.0 - 0.0 - - - - - - -
30/10:00am 10.3 NNE 13 20 1003.2 - 0.0 - - - - - - -
30/09:30am 10.2 NNE 12 22 1003.6 - 0.0 - - - - - - -
30/09:00am 10.1 NNE 11 17 1003.8 - 0.0 - - - - - - -
30/08:30am 9.9 NNE 9 17 1003.9 - 0.0 - - - - - - -
30/08:00am 9.9 NNE 12 18 1003.9 - 0.0 - - - - - - -
30/07:30am 9.9 NNE 10 14 1004.4 - 0.0 - - - - - - -
30/07:00am 10.6 NNE 12 17 1005.0 - 0.0 - - - - - - -
30/06:30am 10.5 N 9 14 1005.2 - 0.0 - - - - - - -
30/06:00am 10.5 NNE 9 15 1005.6 - 0.0 - - - - - - -
30/05:30am 10.0 N 8 13 1006.0 - 0.0 - - - - - - -
30/05:00am 10.3 NNW 8 13 1006.6 - 0.0 - - - - - - -
30/04:30am 10.3 N 8 13 1007.1 - 0.0 - - - - - - -
30/04:00am 9.6 NE 4 6 1007.4 - 0.0 - - - - - - -
30/03:30am 9.9 NNE 7 11 1008.2 - 0.0 - - - - - - -
30/03:00am 10.1 NNE 6 9 1008.8 - 0.0 - - - - - - -
30/02:30am 10.2 NNE 9 13 1009.4 - 0.0 - - - - - - -
30/02:00am 10.1 NNE 10 13 1009.8 - 0.0 - - - - - - -
30/01:30am 10.2 NNE 8 13 1010.4 - 0.0 - - - - - - -
30/01:00am 9.4 NNE 6 7 1010.8 - 0.0 - - - - - - -
30/12:30am 9.7 N 6 9 1011.5 - 0.0 - - - - - - -
30/12:00am 9.6 N 7 11 1012.3 - 0.0 - - - - - - -
 
Date/Time
EST
Temp
°C
Wind Pressure Rain since
9am
mm
Weather Cloud Vis
km
Sea
Height
m
Swell
Dir  Spd
kts
Gust
kts
hPa Trend Height
m
Period
s
Dir
29/11:30pm 8.5 E 4 5 1012.7 - 0.0 - - - - - - -
29/11:00pm 8.8 NE 3 5 1013.2 - 0.0 - - - - - - -
29/10:30pm 9.2 NNW 5 7 1013.7 - 0.0 - - - - - - -
29/10:00pm 8.7 NNE 6 9 1013.8 - 0.0 - - - - - - -
29/09:30pm 9.2 N 6 8 1014.3 - 0.0 - - - - - - -
29/09:00pm 9.4 NNE 7 11 1014.6 - 0.0 - - - - - - -
29/08:30pm 9.9 N 8 13 1015.0 - 0.0 - - - - - - -
29/08:00pm 10.2 N 9 11 1015.4 - 0.0 - - - - - - -
29/07:30pm 9.3 N 7 8 1015.6 - 0.0 - - - - - - -
29/07:00pm 9.5 NE 7 10 1015.7 - 0.0 - - - - - - -
29/06:30pm 10.5 NNW 10 13 1016.1 - 0.0 - - - - - - -
29/06:00pm 10.3 NNW 8 14 1016.1 - 0.0 - - - - - - -
29/05:30pm 10.3 NNW 8 13 1016.4 - 0.0 - - - - - - -
29/05:00pm 10.3 N 7 9 1016.4 - 0.0 - - - - - - -
29/04:30pm 11.3 NE 6 9 1016.5 - 0.0 - - - - - - -
29/04:00pm 11.7 NNW 6 9 1016.7 - 0.0 - - - - - - -
29/03:30pm 12.5 NNW 6 9 1017.0 - 0.0 - - - - - - -
29/03:00pm 12.1 NW 12 17 1016.9 - 0.0 - - - - - - -
29/02:30pm 11.8 NNW 9 11 1017.0 - 0.0 - - - - - - -
29/02:00pm 12.7 NNW 8 11 1016.8 - 0.0 - - - - - - -
29/01:30pm 13.1 NNW 7 12 1017.2 - 0.0 - - - - - - -
29/01:00pm 12.5 NW 10 15 1017.5 - 0.0 - - - - - - -
29/12:30pm 13.3 NNW 7 13 1017.9 - 0.0 - - - - - - -
29/12:00pm 12.8 NNE 7 10 1018.2 - 0.0 - - - - - - -
29/11:30am 12.5 N 6 9 1018.4 - 0.0 - - - - - - -
29/11:00am 12.1 N 6 9 1018.9 - 0.0 - - - - - - -
29/10:30am 11.5 NNW 5 6 1019.1 - 0.0 - - - - - - -
29/10:00am 11.1 N 7 9 1018.9 - 0.0 - - - - - - -
29/09:30am 10.5 NNE 6 8 1018.9 - 0.0 - - - - - - -
29/09:00am 10.4 NNE 7 8 1018.8 - 5.6 - - - - - - -
29/08:30am 10.7 S 2 6 1018.5 - 5.6 - - - - - - -
29/08:00am 10.8 NNW 5 7 1018.1 - 5.6 - - - - - - -
29/07:30am 11.1 NW 6 8 1017.8 - 5.6 - - - - - - -
29/07:00am 11.0 NW 8 11 1017.4 - 5.6 - - - - - - -
29/06:30am 11.1 WNW 7 11 1017.1 - 5.6 - - - - - - -
29/06:00am 11.2 NW 11 15 1016.7 - 5.6 - - - - - - -
29/05:30am 11.0 NW 14 18 1016.3 - 5.6 - - - - - - -
29/05:00am 10.4 NW 11 15 1015.9 - 5.6 - - - - - - -
29/04:30am 10.4 NW 10 14 1015.6 - 5.6 - - - - - - -
29/04:00am 10.5 NW 15 21 1015.4 - 5.6 - - - - - - -
29/03:30am 10.6 NW 14 19 1014.9 - 5.6 - - - - - - -
29/03:00am 10.2 NNW 11 13 1014.9 - 5.6 Recent precip. - - - - - -
29/02:30am 10.3 W 11 16 1015.1 - 5.6 - - - - - - -
29/02:00am 10.0 W 18 22 1014.7 - 5.2 - - - - - - -
29/01:30am 9.8 W 23 30 1014.5 - 4.4 - - - - - - -
29/01:01am 9.8 W 25 35 1014.3 - 2.6 - - - - - - -
29/01:00am 9.7 W 26 35 1014.2 - 2.6 - - - - - - -
29/12:36am 9.9 WSW 23 34 1014.1 - 1.0 - - - - - - -
29/12:30am 10.1 WSW 22 30 1014.2 - 0.8 - - - - - - -
29/12:21am 11.1 W 22 25 1014.1 - 0.6 - - - - - - -
29/12:00am 12.6 WNW 27 35 1012.9 - 0.4 - - - - - - -
 
Date/Time
EST
Temp
°C
Wind Pressure Rain since
9am
mm
Weather Cloud Vis
km
Sea
Height
m
Swell
Dir  Spd
kts
Gust
kts
hPa Trend Height
m
Period
s
Dir
28/11:50pm 13.2 WNW 23 39 1013.0 - 0.4 - - - - - - -
28/11:33pm 13.1 WNW 15 27 1013.2 - 0.4 - - - - - - -
28/11:30pm 12.7 WNW 12 22 1013.2 - 0.4 - - - - - - -
28/11:00pm 11.1 N 9 19 1013.4 - 0.4 - - - - - - -
28/10:30pm 12.2 NNW 12 18 1013.3 - 0.4 - - - - - - -
28/10:00pm 11.8 NNE 11 17 1013.5 - 0.4 - - - - - - -
28/09:30pm 12.0 NNE 10 16 1013.7 - 0.4 - - - - - - -
28/09:00pm 12.2 N 9 14 1013.1 - 0.4 - - - - - - -
28/08:30pm 12.3 NNW 10 20 1013.4 - 0.4 - - - - - - -
28/08:00pm 12.0 NW 13 26 1013.5 - 0.4 - - - - - - -
28/07:52pm 13.1 NW 16 26 1013.2 - 0.4 - - - - - - -
28/07:30pm 12.6 NW 13 17 1013.1 - 0.4 - - - - - - -
28/07:00pm 12.4 NW 14 23 1013.1 - 0.4 - - - - - - -
28/06:30pm 12.3 NNW 10 17 1013.2 - 0.4 - - - - - - -
28/06:00pm 12.6 NW 11 15 1012.8 - 0.4 - - - - - - -
28/05:30pm 12.5 NW 15 19 1012.6 - 0.4 - - - - - - -
28/05:00pm 12.6 NW 14 20 1012.5 - 0.4 - - - - - - -
28/04:30pm 12.7 WNW 19 24 1012.3 - 0.4 - - - - - - -
28/04:14pm 13.2 NW 15 26 1012.3 - 0.4 - - - - - - -
28/04:00pm 12.9 WNW 13 18 1012.4 - 0.4 - - - - - - -
28/03:30pm 13.2 WNW 13 19 1012.2 - 0.4 - - - - - - -
28/03:00pm 13.2 WNW 16 21 1012.2 - 0.4 - - - - - - -
28/02:30pm 12.9 WNW 19 23 1012.0 - 0.4 - - - - - - -
28/02:00pm 13.3 WNW 18 29 1011.7 - 0.4 - - - - - - -
28/01:54pm 12.8 WNW 19 29 1012.0 - 0.4 - - - - - - -
28/01:30pm 12.7 WNW 15 22 1011.7 - 0.4 - - - - - - -
28/01:00pm 12.5 NNW 11 17 1011.6 - 0.4 - - - - - - -
28/12:30pm 12.8 NNW 9 13 1011.9 - 0.4 - - - - - - -
28/12:00pm 12.3 NNW 10 16 1012.1 - 0.4 Rain - - - - - -
28/11:30am 12.6 NNW 11 16 1012.0 - 0.2 - - - - - - -
28/11:00am 12.6 N 7 11 1012.0 - 0.2 - - - - - - -
28/10:30am 11.8 NNW 12 17 1012.1 - 0.2 - - - - - - -
28/10:00am 12.0 NNW 13 17 1011.7 - 0.0 - - - - - - -
28/09:30am 11.7 NW 13 17 1011.8 - 0.0 - - - - - - -
28/09:00am 11.9 NW 18 30 1011.2 - 1.2 Recent precip. - - - - - -
28/08:54am 12.1 NNW 16 30 1010.9 - 1.2 - - - - - - -
28/08:30am 11.3 NW 15 20 1011.1 - 0.8 - - - - - - -
28/08:00am 11.5 NW 16 23 1010.5 - 0.8 - - - - - - -
28/07:30am 11.0 NNW 12 20 1010.2 - 0.8 - - - - - - -
28/07:00am 11.2 NW 15 20 1010.2 - 0.6 - - - - - - -
28/06:30am 10.5 NNW 12 17 1009.9 - 0.4 - - - - - - -
28/06:00am 10.7 NNW 13 17 1009.6 - 0.4 Recent precip. - - - - - -
28/05:30am 10.7 NNW 13 18 1009.4 - 0.2 - - - - - - -
28/05:00am 11.0 NW 14 19 1009.0 - 0.2 - - - - - - -
28/04:58am 11.2 NW 14 19 1009.1 - 0.2 - - - - - - -
28/04:30am 10.0 N 6 8 1009.3 - 0.2 - - - - - - -
28/04:00am 11.1 NNW 10 15 1009.4 - 0.2 - - - - - - -
28/03:30am 11.7 NW 17 22 1009.0 - 0.2 - - - - - - -
28/03:00am 10.7 NNW 13 17 1008.9 - 0.2 - - - - - - -
28/02:30am 10.2 NNW 11 17 1008.9 - 0.2 - - - - - - -
28/02:00am 10.8 NNW 13 19 1009.2 - 0.2 - - - - - - -
28/01:30am 11.2 NW 16 21 1009.0 - 0.2 - - - - - - -
28/01:00am 10.9 NW 15 21 1008.8 - 0.2 - - - - - - -
28/12:30am 10.8 NW 14 18 1009.2 - 0.2 - - - - - - -
28/12:00am 10.6 NW 12 17 1009.3 - 0.2 - - - - - - -
 
Date/Time
EST
Temp
°C
Wind Pressure Rain since
9am
mm
Weather Cloud Vis
km
Sea
Height
m
Swell
Dir  Spd
kts
Gust
kts
hPa Trend Height
m
Period
s
Dir
27/11:30pm 10.5 NW 10 16 1009.6 - 0.2 - - - - - - -
27/11:00pm 10.1 NNW 9 12 1009.5 - 0.2 - - - - - - -
27/10:30pm 9.9 N 9 13 1009.9 - 0.2 - - - - - - -
27/10:00pm 9.4 N 9 13 1009.7 - 0.2 - - - - - - -
27/09:30pm 10.3 NW 14 22 1009.9 - 0.2 - - - - - - -
27/09:26pm 10.2 NW 13 22 1010.0 - 0.2 - - - - - - -
27/09:00pm 8.6 N 7 11 1010.1 - 0.2 - - - - - - -
27/08:30pm 8.9 N 8 11 1010.0 - 0.2 - - - - - - -
27/08:00pm 9.5 N 9 13 1010.5 - 0.2 - - - - - - -
27/07:30pm 9.2 NNW 9 14 1010.3 - 0.2 - - - - - - -
27/07:00pm 9.6 NNW 11 18 1010.2 - 0.2 - - - - - - -
27/06:30pm 8.6 NNE 9 14 1010.3 - 0.2 - - - - - - -
27/06:00pm 7.9 N 8 14 1010.2 - 0.2 - - - - - - -
27/05:30pm 9.0 NNW 10 15 1010.1 - 0.2 - - - - - - -
27/05:00pm 10.0 WNW 11 16 1009.8 - 0.2 - - - - - - -
27/04:30pm 10.0 WNW 10 19 1009.9 - 0.2 - - - - - - -
27/04:00pm 10.9 WNW 12 16 1009.7 - 0.2 - - - - - - -
27/03:30pm 10.8 W 25 30 1009.2 - 0.2 - - - - - - -
27/03:11pm 11.6 WNW 19 29 1009.2 - 0.0 - - - - - - -

Other Formats:

Comma delimited format used in spreadsheet applications
http://www.bom.gov.au/fwo/IDT60701/IDT60701.95967.axf

JavaScript Object Notation format (JSON) in row-major order
http://www.bom.gov.au/fwo/IDT60701/IDT60701.95967.json